createdAt,value
2023-05-25T00:00:31.515Z,99.90
2023-05-25T00:02:59.621Z,99.90
2023-05-25T00:05:27.897Z,99.90
2023-05-25T00:07:55.488Z,99.90
2023-05-25T00:10:24.105Z,99.90
2023-05-25T00:12:51.861Z,99.90
2023-05-25T00:15:18.996Z,99.90
2023-05-25T00:17:49.114Z,99.90
2023-05-25T00:20:16.435Z,99.90
2023-05-25T00:22:46.191Z,99.90
2023-05-25T00:25:13.331Z,99.90
2023-05-25T00:27:40.527Z,99.90
2023-05-25T00:30:08.006Z,99.90
2023-05-25T00:32:35.059Z,99.90
2023-05-25T00:35:02.080Z,99.90
2023-05-25T00:37:29.131Z,99.90
2023-05-25T00:39:56.211Z,99.90
2023-05-25T00:42:23.679Z,99.90
2023-05-25T00:44:50.755Z,99.90
2023-05-25T00:47:17.918Z,99.90
2023-05-25T00:49:46.287Z,99.90
2023-05-25T00:52:13.646Z,99.90
2023-05-25T00:54:40.722Z,99.90
2023-05-25T00:57:08.211Z,99.90
2023-05-25T00:59:43.098Z,99.90
2023-05-25T01:02:11.153Z,99.90
2023-05-25T01:04:45.350Z,99.90
2023-05-25T01:07:17.908Z,99.90
2023-05-25T01:09:45.825Z,99.90
2023-05-25T01:12:15.047Z,99.90
2023-05-25T01:14:42.399Z,99.90
2023-05-25T01:17:12.153Z,99.90
2023-05-25T01:19:41.181Z,99.90
2023-05-25T01:22:12.424Z,99.90
2023-05-25T01:24:41.250Z,99.90
2023-05-25T01:27:32.648Z,99.90
2023-05-25T01:30:00.424Z,99.90
2023-05-25T01:32:27.588Z,99.90
2023-05-25T01:34:56.502Z,99.90
2023-05-25T01:37:27.048Z,99.90
2023-05-25T01:39:54.044Z,99.90
2023-05-25T01:42:21.298Z,99.90
2023-05-25T01:44:48.412Z,99.90
2023-05-25T01:47:34.305Z,99.90
2023-05-25T01:50:01.372Z,99.90
2023-05-25T01:52:41.642Z,99.90
2023-05-25T01:55:12.875Z,99.90
2023-05-25T01:57:42.754Z,99.90
2023-05-25T02:00:10.493Z,99.90
2023-05-25T02:02:44.190Z,99.90
2023-05-25T02:05:11.692Z,99.90
2023-05-25T02:07:39.140Z,99.90
2023-05-25T02:10:06.445Z,99.90
2023-05-25T02:12:33.382Z,99.90
2023-05-25T02:15:00.348Z,99.90
2023-05-25T02:17:28.191Z,99.90
2023-05-25T02:19:55.308Z,99.90
2023-05-25T02:22:22.657Z,99.90
2023-05-25T02:24:49.684Z,99.90
2023-05-25T02:27:16.757Z,99.90
2023-05-25T02:29:43.870Z,99.90
2023-05-25T02:32:10.962Z,99.90
2023-05-25T02:34:37.972Z,99.90
2023-05-25T02:37:06.386Z,99.90
2023-05-25T02:39:33.330Z,99.90
2023-05-25T02:42:01.489Z,99.90
2023-05-25T02:44:28.598Z,99.90
2023-05-25T02:46:55.782Z,99.90
2023-05-25T02:49:23.562Z,99.90
2023-05-25T02:51:50.646Z,99.90
2023-05-25T02:54:17.606Z,99.90
2023-05-25T02:56:45.903Z,99.90
2023-05-25T02:59:15.128Z,99.90
2023-05-25T03:01:42.250Z,99.90
2023-05-25T03:04:09.381Z,99.90
2023-05-25T03:06:38.108Z,99.90
2023-05-25T03:09:12.397Z,99.90
2023-05-25T03:11:40.435Z,99.90
2023-05-25T03:14:10.586Z,99.90
2023-05-25T03:16:39.243Z,99.90
2023-05-25T03:19:07.589Z,99.90
2023-05-25T03:21:37.210Z,99.90
2023-05-25T03:24:04.314Z,99.90
2023-05-25T03:26:32.338Z,99.90
2023-05-25T03:29:01.049Z,99.90
2023-05-25T03:31:28.068Z,99.90
2023-05-25T03:33:55.135Z,99.90
2023-05-25T03:36:23.031Z,99.90
2023-05-25T03:38:49.995Z,99.90
2023-05-25T03:41:16.980Z,99.90
2023-05-25T03:43:43.924Z,99.90
2023-05-25T03:46:11.884Z,99.90
2023-05-25T03:48:39.047Z,99.90
2023-05-25T03:51:05.960Z,99.90
2023-05-25T03:53:32.856Z,99.90
2023-05-25T03:55:59.825Z,99.90
2023-05-25T03:58:26.834Z,99.90
2023-05-25T04:00:55.036Z,99.90
2023-05-25T04:03:22.257Z,99.90
2023-05-25T04:05:50.269Z,99.90
2023-05-25T04:08:20.109Z,99.90
2023-05-25T04:10:47.475Z,99.90
2023-05-25T04:13:14.359Z,99.90
2023-05-25T04:15:41.400Z,99.90
2023-05-25T04:18:28.583Z,99.90
2023-05-25T04:20:59.710Z,99.90
2023-05-25T04:23:26.871Z,99.90
2023-05-25T04:25:55.197Z,99.90
2023-05-25T04:28:22.862Z,99.90
2023-05-25T04:30:57.351Z,99.90
2023-05-25T04:33:43.225Z,99.90
2023-05-25T04:36:22.994Z,99.90
2023-05-25T04:38:54.925Z,99.90
2023-05-25T04:41:23.155Z,99.90
2023-05-25T04:44:06.871Z,99.90
2023-05-25T04:46:40.868Z,99.90
2023-05-25T04:49:13.383Z,99.90
2023-05-25T04:51:40.377Z,99.90
2023-05-25T04:54:07.852Z,99.90
2023-05-25T04:56:34.812Z,99.90
2023-05-25T04:59:04.631Z,99.90
2023-05-25T05:01:34.545Z,99.90
2023-05-25T05:04:03.299Z,99.90
2023-05-25T05:06:30.299Z,99.90
2023-05-25T05:08:58.156Z,99.90
2023-05-25T05:11:25.138Z,99.90
2023-05-25T05:13:53.803Z,99.90
2023-05-25T05:16:21.190Z,99.90
2023-05-25T05:18:48.346Z,99.90
2023-05-25T05:21:15.623Z,99.90
2023-05-25T05:23:43.013Z,99.90
2023-05-25T05:26:11.787Z,99.90
2023-05-25T05:28:39.110Z,99.90
2023-05-25T05:31:07.621Z,99.90
2023-05-25T05:33:35.304Z,99.90
2023-05-25T05:36:03.895Z,99.90
2023-05-25T05:38:31.360Z,99.90
2023-05-25T05:40:58.433Z,99.90
2023-05-25T05:43:25.713Z,99.90
2023-05-25T05:45:53.208Z,99.90
2023-05-25T05:48:20.566Z,99.90
2023-05-25T05:50:47.664Z,99.90
2023-05-25T05:53:15.661Z,99.90
2023-05-25T05:55:43.520Z,99.90
2023-05-25T05:58:10.615Z,99.90
2023-05-25T06:00:37.810Z,99.90
2023-05-25T06:03:07.520Z,99.90
2023-05-25T06:05:34.602Z,99.90
2023-05-25T06:08:01.790Z,99.90
2023-05-25T06:10:28.807Z,99.90
2023-05-25T06:12:55.937Z,99.90
2023-05-25T06:15:23.086Z,99.90
2023-05-25T06:17:52.243Z,99.90
2023-05-25T06:20:19.353Z,99.90
2023-05-25T06:22:47.057Z,99.50
2023-05-25T06:25:14.187Z,99.20
2023-05-25T06:27:41.376Z,98.40
2023-05-25T06:30:08.697Z,98.30
2023-05-25T06:32:37.037Z,98.20
2023-05-25T06:35:04.692Z,99.40
2023-05-25T06:37:38.084Z,99.40
2023-05-25T06:40:09.550Z,99.30
2023-05-25T06:42:37.913Z,99.90
2023-05-25T06:45:05.457Z,98.40
2023-05-25T06:47:32.497Z,97.10
2023-05-25T06:49:59.855Z,98.10
2023-05-25T06:52:29.824Z,96.90
2023-05-25T06:54:57.211Z,97.50
2023-05-25T06:57:24.479Z,96.70
2023-05-25T06:59:51.424Z,97.40
2023-05-25T07:02:19.932Z,97.70
2023-05-25T07:04:46.978Z,97.70
2023-05-25T07:07:14.514Z,98.50
2023-05-25T07:09:41.814Z,98.90
2023-05-25T07:12:10.142Z,98.40
2023-05-25T07:14:37.717Z,96.70
2023-05-25T07:17:04.798Z,95.40
2023-05-25T07:19:31.800Z,96.50
2023-05-25T07:21:58.748Z,96.70
2023-05-25T07:24:25.911Z,97.10
2023-05-25T07:26:52.848Z,98.30
2023-05-25T07:29:19.806Z,97.50
2023-05-25T07:31:46.844Z,97.30
2023-05-25T07:34:13.857Z,98.10
2023-05-25T07:36:40.812Z,98.20
2023-05-25T07:39:08.667Z,96.70
2023-05-25T07:41:35.647Z,94.80
2023-05-25T07:44:02.622Z,93.30
2023-05-25T07:46:29.859Z,94.20
2023-05-25T07:48:58.447Z,92.50
2023-05-25T07:51:29.134Z,93.50
2023-05-25T07:53:57.255Z,93.50
2023-05-25T07:56:24.503Z,93.60
2023-05-25T07:58:51.487Z,93.30
2023-05-25T08:01:18.829Z,92.80
2023-05-25T08:03:49.787Z,92.60
2023-05-25T08:06:17.505Z,92.90
2023-05-25T08:08:47.131Z,92.40
2023-05-25T08:11:14.986Z,92.70
2023-05-25T08:13:41.977Z,93.40
2023-05-25T08:16:09.518Z,92.40
2023-05-25T08:18:36.665Z,91.90
2023-05-25T08:21:03.738Z,91.40
2023-05-25T08:23:30.825Z,91.30
2023-05-25T08:25:57.775Z,91.60
2023-05-25T08:28:24.714Z,92.90
2023-05-25T08:30:51.742Z,92.60
2023-05-25T08:33:18.740Z,92.30
2023-05-25T08:35:45.915Z,92.80
2023-05-25T08:38:13.022Z,93.10
2023-05-25T08:40:41.510Z,93.10
2023-05-25T08:43:08.525Z,92.20
2023-05-25T08:45:37.611Z,90.60
2023-05-25T08:48:10.903Z,90.20
2023-05-25T08:50:38.780Z,90.00
2023-05-25T08:53:08.425Z,88.00
2023-05-25T08:55:36.549Z,90.10
2023-05-25T08:58:10.069Z,87.00
2023-05-25T09:00:40.740Z,90.00
2023-05-25T09:03:14.185Z,90.30
2023-05-25T09:05:42.180Z,90.50
2023-05-25T09:08:10.542Z,87.20
2023-05-25T09:10:38.478Z,87.40
2023-05-25T09:13:19.467Z,87.30
2023-05-25T09:15:48.427Z,88.20
2023-05-25T09:18:15.678Z,89.70
2023-05-25T09:20:45.945Z,89.30
2023-05-25T09:23:14.372Z,87.50
2023-05-25T09:25:41.673Z,86.50
2023-05-25T09:28:25.305Z,88.10
2023-05-25T09:30:54.111Z,87.90
2023-05-25T09:33:21.628Z,88.20
2023-05-25T09:35:49.133Z,86.50
2023-05-25T09:38:17.187Z,83.60
2023-05-25T09:40:45.041Z,83.60
2023-05-25T09:43:17.294Z,84.80
2023-05-25T09:45:49.469Z,85.20
2023-05-25T09:48:18.024Z,85.60
2023-05-25T09:50:46.076Z,86.80
2023-05-25T09:53:15.037Z,85.80
2023-05-25T09:55:53.124Z,85.70
2023-05-25T09:58:22.897Z,85.60
2023-05-25T10:00:49.809Z,85.40
2023-05-25T10:03:17.126Z,83.90
2023-05-25T10:05:45.626Z,84.40
2023-05-25T10:08:13.055Z,83.70
2023-05-25T10:10:41.220Z,83.90
2023-05-25T10:13:08.673Z,84.50
2023-05-25T10:15:37.852Z,85.20
2023-05-25T10:18:05.994Z,87.00
2023-05-25T10:20:35.224Z,85.90
2023-05-25T10:23:10.016Z,86.60
2023-05-25T10:25:42.038Z,86.80
2023-05-25T10:28:19.912Z,85.40
2023-05-25T10:30:47.703Z,85.80
2023-05-25T10:33:14.960Z,87.60
2023-05-25T10:36:01.587Z,85.90
2023-05-25T10:38:31.806Z,87.00
2023-05-25T10:40:59.914Z,87.20
2023-05-25T10:43:27.680Z,84.70
2023-05-25T10:45:55.634Z,84.20
2023-05-25T10:48:23.939Z,83.80
2023-05-25T10:50:51.667Z,82.20
2023-05-25T10:53:21.102Z,84.20
2023-05-25T10:55:54.231Z,84.30
2023-05-25T10:58:22.402Z,85.60
2023-05-25T11:01:00.415Z,84.50
2023-05-25T11:03:46.423Z,85.90
2023-05-25T11:06:17.946Z,86.30
2023-05-25T11:08:55.698Z,84.80
2023-05-25T11:11:23.144Z,85.30
2023-05-25T11:13:50.370Z,86.10
2023-05-25T11:16:20.723Z,85.00
2023-05-25T11:18:55.138Z,83.50
2023-05-25T11:21:29.074Z,83.40
2023-05-25T11:23:56.244Z,83.60
2023-05-25T11:26:29.588Z,83.50
2023-05-25T11:28:59.075Z,84.10
2023-05-25T11:31:31.984Z,85.20
2023-05-25T11:34:01.218Z,83.10
2023-05-25T11:36:31.673Z,83.80
2023-05-25T11:39:04.936Z,86.10
2023-05-25T11:41:36.644Z,85.90
2023-05-25T11:44:04.542Z,84.60
2023-05-25T11:46:33.266Z,81.10
2023-05-25T11:49:01.099Z,82.80
2023-05-25T11:51:29.233Z,80.60
2023-05-25T11:53:56.894Z,81.10
2023-05-25T11:56:34.981Z,80.60
2023-05-25T11:59:02.836Z,81.40
2023-05-25T12:01:32.193Z,81.50
2023-05-25T12:04:08.046Z,81.90
2023-05-25T12:06:36.832Z,82.40
2023-05-25T12:09:08.319Z,82.40
2023-05-25T12:11:38.504Z,81.40
2023-05-25T12:14:06.666Z,82.40
2023-05-25T12:16:34.990Z,80.80
2023-05-25T12:19:02.526Z,80.80
2023-05-25T12:21:29.772Z,81.40
2023-05-25T12:23:56.941Z,81.10
2023-05-25T12:26:24.212Z,81.90
2023-05-25T12:29:04.253Z,81.80
2023-05-25T12:31:33.136Z,84.10
2023-05-25T12:34:02.943Z,81.60
2023-05-25T12:36:40.374Z,81.30
2023-05-25T12:39:07.937Z,81.80
2023-05-25T12:41:44.709Z,83.80
2023-05-25T12:44:23.949Z,83.00
2023-05-25T12:46:55.564Z,82.40
2023-05-25T12:49:32.786Z,80.30
2023-05-25T12:52:01.264Z,79.60
2023-05-25T12:54:46.926Z,79.00
2023-05-25T12:57:14.604Z,79.60
2023-05-25T12:59:42.911Z,79.80
2023-05-25T13:02:10.492Z,80.80
2023-05-25T13:04:38.401Z,81.10
2023-05-25T13:07:05.931Z,82.00
2023-05-25T13:09:33.102Z,83.10
2023-05-25T13:12:01.928Z,80.90
2023-05-25T13:14:29.600Z,81.10
2023-05-25T13:16:57.596Z,78.50
2023-05-25T13:19:26.238Z,79.70
2023-05-25T13:21:53.357Z,80.50
2023-05-25T13:24:20.558Z,79.70
2023-05-25T13:26:49.153Z,79.70
2023-05-25T13:29:19.060Z,81.50
2023-05-25T13:31:46.910Z,81.60
2023-05-25T13:34:14.013Z,81.10
2023-05-25T13:36:41.303Z,81.40
2023-05-25T13:39:10.917Z,80.70
2023-05-25T13:41:37.950Z,81.40
2023-05-25T13:44:04.981Z,81.50
2023-05-25T13:46:35.045Z,82.40
2023-05-25T13:49:02.743Z,81.60
2023-05-25T13:51:29.707Z,81.80
2023-05-25T13:53:56.722Z,79.00
2023-05-25T13:56:24.072Z,78.80
2023-05-25T13:58:51.011Z,79.70
2023-05-25T14:01:18.020Z,80.90
2023-05-25T14:03:45.899Z,80.50
2023-05-25T14:06:12.981Z,80.40
2023-05-25T14:08:40.340Z,79.90
2023-05-25T14:11:07.285Z,79.80
2023-05-25T14:13:36.301Z,80.40
2023-05-25T14:16:03.895Z,79.80
2023-05-25T14:18:31.148Z,80.00
2023-05-25T14:20:58.209Z,80.10
2023-05-25T14:23:25.151Z,78.30
2023-05-25T14:25:52.283Z,78.90
2023-05-25T14:28:19.650Z,78.90
2023-05-25T14:30:46.780Z,79.50
2023-05-25T14:33:16.106Z,78.60
2023-05-25T14:35:43.570Z,76.90
2023-05-25T14:38:10.760Z,78.00
2023-05-25T14:40:37.813Z,77.70
2023-05-25T14:43:04.812Z,78.40
2023-05-25T14:45:31.809Z,77.80
2023-05-25T14:48:11.996Z,78.70
2023-05-25T14:50:44.885Z,79.20
2023-05-25T14:53:12.017Z,80.20
2023-05-25T14:55:39.030Z,80.80
2023-05-25T14:58:05.968Z,79.50
2023-05-25T15:00:33.029Z,80.80
2023-05-25T15:03:00.065Z,80.70
2023-05-25T15:05:27.121Z,81.00
2023-05-25T15:07:54.595Z,81.70
2023-05-25T15:10:21.616Z,81.80
2023-05-25T15:12:48.585Z,81.70
2023-05-25T15:15:15.702Z,80.60
2023-05-25T15:17:42.837Z,80.30
2023-05-25T15:20:10.185Z,80.10
2023-05-25T15:22:37.200Z,80.00
2023-05-25T15:25:05.523Z,79.90
2023-05-25T15:27:34.866Z,79.30
2023-05-25T15:30:01.944Z,79.80
2023-05-25T15:32:28.950Z,78.80
2023-05-25T15:34:55.898Z,79.40
2023-05-25T15:37:22.892Z,79.50
2023-05-25T15:39:49.819Z,80.00
2023-05-25T15:42:16.721Z,78.20
2023-05-25T15:44:43.768Z,78.00
2023-05-25T15:47:10.768Z,77.70
2023-05-25T15:49:37.818Z,76.80
2023-05-25T15:52:04.900Z,76.70
2023-05-25T15:54:32.092Z,75.90
2023-05-25T15:56:59.151Z,76.00
2023-05-25T15:59:26.091Z,75.50
2023-05-25T16:01:53.060Z,76.50
2023-05-25T16:04:20.158Z,78.50
2023-05-25T16:06:48.702Z,80.30
2023-05-25T16:09:16.374Z,80.50
2023-05-25T16:11:43.352Z,81.10
2023-05-25T16:14:10.318Z,81.80
2023-05-25T16:16:37.607Z,78.90
2023-05-25T16:19:04.633Z,77.80
2023-05-25T16:21:36.944Z,77.70
2023-05-25T16:24:05.931Z,78.00
2023-05-25T16:26:33.380Z,78.00
2023-05-25T16:29:00.527Z,77.60
2023-05-25T16:31:28.001Z,77.80
2023-05-25T16:33:54.994Z,79.00
2023-05-25T16:36:22.048Z,79.40
2023-05-25T16:38:48.969Z,80.00
2023-05-25T16:41:15.905Z,80.30
2023-05-25T16:43:42.982Z,80.30
2023-05-25T16:46:09.938Z,80.00
2023-05-25T16:48:37.092Z,80.40
2023-05-25T16:51:04.012Z,80.20
2023-05-25T16:53:30.905Z,78.80
2023-05-25T16:55:58.018Z,79.30
2023-05-25T16:58:24.933Z,79.30
2023-05-25T17:00:51.982Z,80.00
2023-05-25T17:03:19.061Z,80.80
2023-05-25T17:05:46.297Z,81.50
2023-05-25T17:08:13.318Z,82.20
2023-05-25T17:10:40.811Z,82.80
2023-05-25T17:13:07.819Z,82.80
2023-05-25T17:15:34.791Z,83.30
2023-05-25T17:18:01.796Z,83.70
2023-05-25T17:20:29.330Z,84.00
2023-05-25T17:22:56.653Z,84.40
2023-05-25T17:25:23.853Z,84.50
2023-05-25T17:27:50.858Z,84.70
2023-05-25T17:30:17.876Z,85.10
2023-05-25T17:32:44.858Z,85.20
2023-05-25T17:35:11.892Z,86.00
2023-05-25T17:37:38.917Z,85.60
2023-05-25T17:40:06.215Z,85.90
2023-05-25T17:42:33.159Z,86.00
2023-05-25T17:45:00.082Z,86.60
2023-05-25T17:47:27.487Z,86.80
2023-05-25T17:49:54.593Z,87.20
2023-05-25T17:52:21.723Z,87.90
2023-05-25T17:54:48.670Z,87.70
2023-05-25T17:57:16.276Z,88.10
2023-05-25T17:59:45.636Z,88.30
2023-05-25T18:02:13.121Z,88.80
2023-05-25T18:04:40.188Z,89.00
2023-05-25T18:07:07.161Z,89.50
2023-05-25T18:09:34.129Z,89.90
2023-05-25T18:12:01.293Z,90.00
2023-05-25T18:14:29.264Z,90.10
2023-05-25T18:16:56.373Z,90.10
2023-05-25T18:19:23.355Z,90.30
2023-05-25T18:21:50.411Z,90.50
2023-05-25T18:24:17.686Z,90.50
2023-05-25T18:26:46.392Z,90.40
2023-05-25T18:29:13.494Z,90.40
2023-05-25T18:31:45.889Z,90.60
2023-05-25T18:34:13.236Z,90.40
2023-05-25T18:36:40.280Z,90.50
2023-05-25T18:39:07.288Z,90.40
2023-05-25T18:41:34.324Z,90.50
2023-05-25T18:44:01.243Z,90.60
2023-05-25T18:46:31.276Z,90.70
2023-05-25T18:48:58.498Z,90.90
2023-05-25T18:51:26.093Z,91.10
2023-05-25T18:53:53.475Z,91.40
2023-05-25T18:56:20.454Z,91.70
2023-05-25T18:58:48.963Z,91.90
2023-05-25T19:01:17.793Z,92.00
2023-05-25T19:03:45.051Z,92.20
2023-05-25T19:06:12.097Z,92.30
2023-05-25T19:08:39.075Z,92.40
2023-05-25T19:11:06.182Z,92.50
2023-05-25T19:13:33.181Z,92.60
2023-05-25T19:16:01.322Z,92.70
2023-05-25T19:18:28.382Z,93.00
2023-05-25T19:20:55.548Z,93.10
2023-05-25T19:23:22.423Z,93.20
2023-05-25T19:25:49.360Z,93.40
2023-05-25T19:28:16.405Z,93.50
2023-05-25T19:30:43.439Z,93.70
2023-05-25T19:33:10.793Z,93.70
2023-05-25T19:35:37.951Z,93.70
2023-05-25T19:38:04.899Z,93.90
2023-05-25T19:40:32.489Z,94.10
2023-05-25T19:42:59.484Z,94.20
2023-05-25T19:45:26.485Z,94.40
2023-05-25T19:47:54.015Z,94.60
2023-05-25T19:50:21.402Z,94.70
2023-05-25T19:52:48.425Z,95.00
2023-05-25T19:55:15.458Z,95.40
2023-05-25T19:57:42.480Z,95.50
2023-05-25T20:00:17.425Z,95.80
2023-05-25T20:02:52.199Z,96.10
2023-05-25T20:05:19.883Z,96.20
2023-05-25T20:07:47.004Z,96.30
2023-05-25T20:10:14.093Z,96.60
2023-05-25T20:12:41.618Z,96.80
2023-05-25T20:15:09.113Z,97.00
2023-05-25T20:17:36.082Z,97.10
2023-05-25T20:20:05.268Z,97.30
2023-05-25T20:22:33.107Z,97.40
2023-05-25T20:25:01.060Z,97.50
2023-05-25T20:27:28.446Z,97.70
2023-05-25T20:29:55.495Z,97.70
2023-05-25T20:32:22.692Z,97.90
2023-05-25T20:34:49.779Z,98.40
2023-05-25T20:37:17.358Z,98.90
2023-05-25T20:39:44.649Z,99.00
2023-05-25T20:42:11.889Z,99.20
2023-05-25T20:44:38.866Z,99.50
2023-05-25T20:47:06.139Z,99.70
2023-05-25T20:49:33.067Z,99.90
2023-05-25T20:52:00.148Z,99.90
2023-05-25T20:54:27.417Z,99.90
2023-05-25T20:56:54.506Z,99.90
2023-05-25T20:59:22.237Z,99.90
2023-05-25T21:01:49.342Z,99.90
2023-05-25T21:04:16.397Z,99.90
2023-05-25T21:06:43.501Z,99.90
2023-05-25T21:09:10.713Z,99.90
2023-05-25T21:11:37.794Z,99.90
2023-05-25T21:14:04.864Z,99.90
2023-05-25T21:16:32.011Z,99.90
2023-05-25T21:18:59.009Z,99.90
2023-05-25T21:21:28.076Z,99.90
2023-05-25T21:23:55.076Z,99.90
2023-05-25T21:26:23.557Z,99.90
2023-05-25T21:28:50.837Z,99.90
2023-05-25T21:31:17.825Z,99.90
2023-05-25T21:33:45.944Z,99.90
2023-05-25T21:36:16.011Z,99.90
2023-05-25T21:38:43.079Z,99.90
2023-05-25T21:41:10.069Z,99.90
2023-05-25T21:43:37.245Z,99.90
2023-05-25T21:46:04.631Z,99.90
2023-05-25T21:48:31.590Z,99.90
2023-05-25T21:50:58.779Z,99.90
2023-05-25T21:53:25.974Z,99.90
2023-05-25T21:55:53.093Z,99.90
2023-05-25T21:58:20.257Z,99.90
2023-05-25T22:00:47.467Z,99.90
2023-05-25T22:03:14.742Z,99.90
2023-05-25T22:05:42.062Z,99.90
2023-05-25T22:08:09.293Z,99.90
2023-05-25T22:10:36.523Z,99.90
2023-05-25T22:13:03.867Z,99.90
2023-05-25T22:15:31.142Z,99.90
2023-05-25T22:17:58.401Z,99.90
2023-05-25T22:20:25.743Z,99.90
2023-05-25T22:22:52.750Z,99.90
2023-05-25T22:25:19.870Z,99.90
2023-05-25T22:27:46.860Z,99.90
2023-05-25T22:30:14.218Z,99.90
2023-05-25T22:32:41.226Z,99.90
2023-05-25T22:35:08.571Z,99.90
2023-05-25T22:37:35.678Z,99.90
2023-05-25T22:40:02.644Z,99.90
2023-05-25T22:42:29.692Z,99.90
2023-05-25T22:44:56.823Z,99.90
2023-05-25T22:47:23.894Z,99.90
2023-05-25T22:49:50.930Z,99.90
2023-05-25T22:52:17.869Z,99.90
2023-05-25T22:54:44.860Z,99.90
2023-05-25T22:57:11.905Z,99.90
2023-05-25T22:59:38.909Z,99.90
2023-05-25T23:02:08.493Z,99.90
2023-05-25T23:04:36.447Z,99.90
2023-05-25T23:07:05.381Z,99.90
2023-05-25T23:09:32.316Z,99.90
2023-05-25T23:11:59.270Z,99.90
2023-05-25T23:14:26.244Z,99.90
2023-05-25T23:16:53.462Z,99.90
2023-05-25T23:19:20.394Z,99.90
2023-05-25T23:21:48.384Z,99.90
2023-05-25T23:24:15.683Z,99.90
2023-05-25T23:26:42.714Z,99.90
2023-05-25T23:29:09.643Z,99.90
2023-05-25T23:31:37.031Z,99.90
2023-05-25T23:34:04.011Z,99.90
2023-05-25T23:36:31.409Z,99.90
2023-05-25T23:38:58.379Z,99.90
2023-05-25T23:41:26.376Z,99.90
2023-05-25T23:43:53.296Z,99.90
2023-05-25T23:46:20.368Z,99.90
2023-05-25T23:48:47.457Z,99.90
2023-05-25T23:51:14.404Z,99.90
2023-05-25T23:53:41.420Z,99.90
2023-05-25T23:56:08.399Z,99.90
2023-05-25T23:58:35.805Z,99.90
